Roberts, WI (54023)

13:30 CDT le 30 août 2014 (GMT -0500)
Farm View Ridge | Change Station
CLOSE
Current Station
Stations météorologiques personnelles
Location: Hammond, WI
Altitude: 1102 ft
Stations météo à proximité

Alt. 1102 ft 45.03 °N, 92.46 °W | Updated 0 second ago

Couvert
Couvert
66.0 ° F
Paraît 66.0 ° F
N
5.0
Vent Variable Vent de NO
Gusts 9.0 mph

Aujourd'hui
Haut(e) -- | Bas -- ° F
--% Risque de précip.
Hier
Haut(e) -- | Bas -- ° F
Precip. -- pouce
6:29 AM 7:50 PM
Lune montante, 23% visible
Pression 29.87 pouce
Visibilité 10.0 Miles terrestres
Nuages Nuageux 1600 ft
Couvert 2100 ft
Point de rosée 63 ° F
Humidité 90%
Précipitations 0.48 pouce
Profondeur de la couche neigeuse Non disponible.
UV 3 sur 12
Pollen 6.30 sur 12
Ozone Bon
PM2.5 Bon
Flu Activity Non disponible.
METAR KRNH 301810Z AUTO 34005KT 10SM BKN016 OVC021 19/17 A2987 RMK AO2 T01930166

More Conditions Fewer Conditions

Pression 29.87 pouce
Visibilité 10.0 Miles terrestres
Nuages Nuageux 1600 ft
Couvert 2100 ft
Point de rosée 63 ° F
Humidité 90%
Précipitations 0.48 pouce
Profondeur de la couche neigeuse Non disponible.
UV 3 sur 12
Pollen 6.30 sur 12
Ozone Bon
PM2.5 Bon
Flu Activity Non disponible.
METAR KRNH 301810Z AUTO 34005KT 10SM BKN016 OVC021 19/17 A2987 RMK AO2 T01930166

More Conditions Fewer Conditions

10-Day Weather Forecast

Almanac

Astronomie

Aug. 30, 2014 Lever Coucher
Temps réel 06:29 CDT 19:50 CDT
Crépuscule civil 05:59 CDT 20:21 CDT
Crépuscule nautique 05:22 CDT 20:57 CDT
Crépuscule astronomique 04:43 CDT 21:36 CDT
Lune 11:32 CDT 22:10 CDT
Durée de lumière visible 14h 21m
Longueur du jour
13h 20m
Tomorrow will be 3m 0s shorter.
Lune montante, 23% of the Moon is Illuminated
Aujourd'hui
Lune montante
Sep 2
Premier quartier
Sep 8
Pleine lune
Sep 15
Dernier quartier
Sep 24
Nouveau

Extrêmes aujourd'hui

State Highs State Lows

Community

WunderPhotos

Upload Photos

1,748,591 Photos téléchargées !

WunderBlogs® & News

Nearby

Qualité de l'air

  Qualité de l'air Indice de la qualité de l'air Polluant
Hier Bon
OZONE
Hier Bon
PM2.5
Actuel Bon
OZONE
Actuel Bon
PM2.5
samedi Bon
OZONE
samedi Bon
PM2.5
dimanche Bon
OZONE
dimanche Bon
PM2.5
lundi Bon
OZONE
lundi Bon
PM2.5
mardi Bon
OZONE
mardi Bon
PM2.5
mercredi Bon
OZONE
mercredi Bon
PM2.5
jeudi Bon
OZONE
jeudi Bon
PM2.5

Épaisseur de neige

Station Depth Altitude
Pas de nouvelles chutes de neige

Activité sismique

Ville Distance Mag. Time & Date
No recent earthquake activity has been reported nearby.
Minimum magnitude displayed is 2.5.

Températures des eaux côtières

Lieu Température
Aucun rapport de station

Stations météo à proximité